sensor_id;sensor_type;location;lat;lon;timestamp;P1;durP1;ratioP1;P2;durP2;ratioP2
74530;SDS011;63010;55.668;37.878;2022-12-11T00:01:54;7.50;;;4.60;;
74530;SDS011;63010;55.668;37.878;2022-12-11T00:04:20;8.38;;;5.15;;
74530;SDS011;63010;55.668;37.878;2022-12-11T00:06:46;7.53;;;4.65;;
74530;SDS011;63010;55.668;37.878;2022-12-11T00:09:15;8.38;;;4.95;;
74530;SDS011;63010;55.668;37.878;2022-12-11T00:11:44;8.43;;;5.20;;
74530;SDS011;63010;55.668;37.878;2022-12-11T00:14:11;7.03;;;4.40;;
74530;SDS011;63010;55.668;37.878;2022-12-11T00:16:37;7.47;;;4.70;;
74530;SDS011;63010;55.668;37.878;2022-12-11T00:19:03;6.35;;;4.50;;
74530;SDS011;63010;55.668;37.878;2022-12-11T00:21:29;7.65;;;5.05;;
74530;SDS011;63010;55.668;37.878;2022-12-11T00:23:54;7.07;;;4.00;;
74530;SDS011;63010;55.668;37.878;2022-12-11T00:26:21;6.32;;;4.35;;
74530;SDS011;63010;55.668;37.878;2022-12-11T00:28:46;7.28;;;4.57;;
74530;SDS011;63010;55.668;37.878;2022-12-11T00:31:16;7.43;;;4.68;;
74530;SDS011;63010;55.668;37.878;2022-12-11T00:33:43;8.00;;;4.85;;
74530;SDS011;63010;55.668;37.878;2022-12-11T00:36:17;7.72;;;5.32;;
74530;SDS011;63010;55.668;37.878;2022-12-11T00:38:44;8.93;;;5.57;;
74530;SDS011;63010;55.668;37.878;2022-12-11T00:41:10;10.20;;;5.80;;
74530;SDS011;63010;55.668;37.878;2022-12-11T00:43:36;8.10;;;5.32;;
74530;SDS011;63010;55.668;37.878;2022-12-11T00:46:02;10.25;;;5.72;;
74530;SDS011;63010;55.668;37.878;2022-12-11T00:48:28;9.75;;;6.10;;
74530;SDS011;63010;55.668;37.878;2022-12-11T00:50:53;10.68;;;6.03;;
74530;SDS011;63010;55.668;37.878;2022-12-11T00:53:19;10.30;;;6.38;;
74530;SDS011;63010;55.668;37.878;2022-12-11T00:55:44;10.65;;;6.28;;
74530;SDS011;63010;55.668;37.878;2022-12-11T00:58:10;11.73;;;6.75;;
74530;SDS011;63010;55.668;37.878;2022-12-11T01:00:36;11.85;;;6.70;;
74530;SDS011;63010;55.668;37.878;2022-12-11T01:05:29;13.45;;;6.88;;
74530;SDS011;63010;55.668;37.878;2022-12-11T01:07:54;12.15;;;6.50;;
74530;SDS011;63010;55.668;37.878;2022-12-11T01:10:20;10.90;;;6.70;;
74530;SDS011;63010;55.668;37.878;2022-12-11T01:12:59;25.40;;;12.13;;
74530;SDS011;63010;55.668;37.878;2022-12-11T01:15:27;20.80;;;11.30;;
74530;SDS011;63010;55.668;37.878;2022-12-11T01:17:55;18.80;;;10.30;;
74530;SDS011;63010;55.668;37.878;2022-12-11T01:22:51;13.60;;;6.72;;
74530;SDS011;63010;55.668;37.878;2022-12-11T01:25:17;15.70;;;7.60;;
74530;SDS011;63010;55.668;37.878;2022-12-11T01:27:43;14.50;;;7.40;;
74530;SDS011;63010;55.668;37.878;2022-12-11T01:30:09;14.82;;;8.32;;
74530;SDS011;63010;55.668;37.878;2022-12-11T01:32:35;17.08;;;8.27;;
74530;SDS011;63010;55.668;37.878;2022-12-11T01:35:05;17.48;;;8.20;;
74530;SDS011;63010;55.668;37.878;2022-12-11T01:37:31;14.95;;;8.30;;
74530;SDS011;63010;55.668;37.878;2022-12-11T01:39:58;17.20;;;8.45;;
74530;SDS011;63010;55.668;37.878;2022-12-11T01:42:25;20.50;;;8.98;;
74530;SDS011;63010;55.668;37.878;2022-12-11T01:47:45;17.25;;;8.68;;
74530;SDS011;63010;55.668;37.878;2022-12-11T01:50:12;18.20;;;8.57;;
74530;SDS011;63010;55.668;37.878;2022-12-11T01:52:38;17.20;;;8.68;;
74530;SDS011;63010;55.668;37.878;2022-12-11T01:55:05;18.00;;;9.15;;
74530;SDS011;63010;55.668;37.878;2022-12-11T01:57:33;19.42;;;8.25;;
74530;SDS011;63010;55.668;37.878;2022-12-11T01:59:59;19.60;;;8.70;;
74530;SDS011;63010;55.668;37.878;2022-12-11T02:02:28;23.90;;;7.82;;
74530;SDS011;63010;55.668;37.878;2022-12-11T02:04:55;19.52;;;7.90;;
74530;SDS011;63010;55.668;37.878;2022-12-11T02:07:21;18.75;;;8.40;;
74530;SDS011;63010;55.668;37.878;2022-12-11T02:09:47;16.88;;;8.45;;
74530;SDS011;63010;55.668;37.878;2022-12-11T02:20:33;16.92;;;8.82;;
74530;SDS011;63010;55.668;37.878;2022-12-11T02:28:20;20.52;;;8.25;;
74530;SDS011;63010;55.668;37.878;2022-12-11T02:33:16;16.55;;;7.95;;
74530;SDS011;63010;55.668;37.878;2022-12-11T02:35:47;21.48;;;8.27;;
74530;SDS011;63010;55.668;37.878;2022-12-11T02:38:17;17.25;;;7.68;;
74530;SDS011;63010;55.668;37.878;2022-12-11T02:40:48;16.55;;;7.63;;
74530;SDS011;63010;55.668;37.878;2022-12-11T02:43:17;17.67;;;7.60;;
74530;SDS011;63010;55.668;37.878;2022-12-11T02:45:45;16.27;;;7.63;;
74530;SDS011;63010;55.668;37.878;2022-12-11T02:48:13;17.85;;;7.78;;
74530;SDS011;63010;55.668;37.878;2022-12-11T02:50:41;18.60;;;7.55;;
74530;SDS011;63010;55.668;37.878;2022-12-11T02:53:11;15.48;;;8.23;;
74530;SDS011;63010;55.668;37.878;2022-12-11T02:55:39;17.88;;;8.20;;
74530;SDS011;63010;55.668;37.878;2022-12-11T02:58:17;16.27;;;7.30;;
74530;SDS011;63010;55.668;37.878;2022-12-11T03:00:45;19.77;;;8.05;;
74530;SDS011;63010;55.668;37.878;2022-12-11T03:03:11;16.83;;;8.30;;
74530;SDS011;63010;55.668;37.878;2022-12-11T03:05:38;16.63;;;8.23;;
74530;SDS011;63010;55.668;37.878;2022-12-11T03:10:30;16.33;;;8.23;;
74530;SDS011;63010;55.668;37.878;2022-12-11T03:12:56;19.25;;;8.07;;
74530;SDS011;63010;55.668;37.878;2022-12-11T03:21:10;21.35;;;7.55;;
74530;SDS011;63010;55.668;37.878;2022-12-11T03:24:40;20.65;;;7.85;;
74530;SDS011;63010;55.668;37.878;2022-12-11T03:26:54;18.92;;;6.68;;
74530;SDS011;63010;55.668;37.878;2022-12-11T03:29:25;22.75;;;7.00;;
74530;SDS011;63010;55.668;37.878;2022-12-11T03:31:57;20.52;;;7.63;;
74530;SDS011;63010;55.668;37.878;2022-12-11T03:34:29;17.45;;;6.45;;
74530;SDS011;63010;55.668;37.878;2022-12-11T03:37:02;22.40;;;6.70;;
74530;SDS011;63010;55.668;37.878;2022-12-11T03:39:30;18.35;;;6.50;;
74530;SDS011;63010;55.668;37.878;2022-12-11T03:42:00;22.55;;;6.13;;
74530;SDS011;63010;55.668;37.878;2022-12-11T03:44:27;31.75;;;6.32;;
74530;SDS011;63010;55.668;37.878;2022-12-11T03:46:55;20.65;;;6.60;;
74530;SDS011;63010;55.668;37.878;2022-12-11T03:49:24;21.77;;;6.00;;
74530;SDS011;63010;55.668;37.878;2022-12-11T03:51:53;23.38;;;6.18;;
74530;SDS011;63010;55.668;37.878;2022-12-11T03:54:21;22.70;;;6.55;;
74530;SDS011;63010;55.668;37.878;2022-12-11T03:56:48;19.65;;;5.55;;
74530;SDS011;63010;55.668;37.878;2022-12-11T03:59:18;20.85;;;6.93;;
74530;SDS011;63010;55.668;37.878;2022-12-11T04:01:43;18.00;;;6.15;;
74530;SDS011;63010;55.668;37.878;2022-12-11T04:04:09;17.77;;;7.25;;
74530;SDS011;63010;55.668;37.878;2022-12-11T04:06:35;20.95;;;7.10;;
74530;SDS011;63010;55.668;37.878;2022-12-11T04:09:00;18.42;;;6.15;;
74530;SDS011;63010;55.668;37.878;2022-12-11T04:11:26;18.25;;;6.28;;
74530;SDS011;63010;55.668;37.878;2022-12-11T04:14:04;15.05;;;6.22;;
74530;SDS011;63010;55.668;37.878;2022-12-11T04:16:50;18.80;;;5.70;;
74530;SDS011;63010;55.668;37.878;2022-12-11T04:19:17;21.30;;;5.32;;
74530;SDS011;63010;55.668;37.878;2022-12-11T04:24:46;16.15;;;5.78;;
74530;SDS011;63010;55.668;37.878;2022-12-11T04:27:13;27.58;;;7.03;;
74530;SDS011;63010;55.668;37.878;2022-12-11T04:29:59;21.42;;;5.35;;
74530;SDS011;63010;55.668;37.878;2022-12-11T04:32:24;18.70;;;5.50;;
74530;SDS011;63010;55.668;37.878;2022-12-11T04:34:50;18.48;;;6.20;;
74530;SDS011;63010;55.668;37.878;2022-12-11T04:37:15;24.23;;;7.82;;
74530;SDS011;63010;55.668;37.878;2022-12-11T04:39:41;14.88;;;5.13;;
74530;SDS011;63010;55.668;37.878;2022-12-11T04:42:06;16.65;;;5.00;;
74530;SDS011;63010;55.668;37.878;2022-12-11T04:44:32;16.05;;;5.38;;
74530;SDS011;63010;55.668;37.878;2022-12-11T04:46:58;16.52;;;4.95;;
74530;SDS011;63010;55.668;37.878;2022-12-11T04:49:24;14.30;;;5.43;;
74530;SDS011;63010;55.668;37.878;2022-12-11T04:51:49;15.80;;;5.80;;
74530;SDS011;63010;55.668;37.878;2022-12-11T04:54:15;15.45;;;5.32;;
74530;SDS011;63010;55.668;37.878;2022-12-11T04:56:40;19.00;;;5.80;;
74530;SDS011;63010;55.668;37.878;2022-12-11T04:59:06;17.63;;;5.32;;
74530;SDS011;63010;55.668;37.878;2022-12-11T05:01:31;12.88;;;5.78;;
74530;SDS011;63010;55.668;37.878;2022-12-11T05:03:57;11.60;;;5.38;;
74530;SDS011;63010;55.668;37.878;2022-12-11T05:06:24;15.88;;;5.15;;
74530;SDS011;63010;55.668;37.878;2022-12-11T05:08:49;13.32;;;4.65;;
74530;SDS011;63010;55.668;37.878;2022-12-11T05:11:15;13.43;;;5.30;;
74530;SDS011;63010;55.668;37.878;2022-12-11T05:13:42;12.07;;;4.90;;
74530;SDS011;63010;55.668;37.878;2022-12-11T05:18:35;12.32;;;4.32;;
74530;SDS011;63010;55.668;37.878;2022-12-11T05:21:04;14.25;;;5.20;;
74530;SDS011;63010;55.668;37.878;2022-12-11T05:23:32;12.55;;;4.93;;
74530;SDS011;63010;55.668;37.878;2022-12-11T05:26:02;12.25;;;4.70;;
74530;SDS011;63010;55.668;37.878;2022-12-11T05:28:31;16.10;;;5.05;;
74530;SDS011;63010;55.668;37.878;2022-12-11T05:31:00;14.25;;;4.70;;
74530;SDS011;63010;55.668;37.878;2022-12-11T05:33:27;20.33;;;5.55;;
74530;SDS011;63010;55.668;37.878;2022-12-11T05:35:53;15.48;;;5.13;;
74530;SDS011;63010;55.668;37.878;2022-12-11T05:38:19;13.65;;;4.93;;
74530;SDS011;63010;55.668;37.878;2022-12-11T05:40:53;13.18;;;5.18;;
74530;SDS011;63010;55.668;37.878;2022-12-11T05:43:20;12.20;;;5.15;;
74530;SDS011;63010;55.668;37.878;2022-12-11T05:45:46;9.27;;;4.25;;
74530;SDS011;63010;55.668;37.878;2022-12-11T05:48:11;12.13;;;5.32;;
74530;SDS011;63010;55.668;37.878;2022-12-11T05:50:37;11.95;;;4.68;;
74530;SDS011;63010;55.668;37.878;2022-12-11T05:53:02;17.63;;;6.18;;
74530;SDS011;63010;55.668;37.878;2022-12-11T05:55:29;15.20;;;5.50;;
74530;SDS011;63010;55.668;37.878;2022-12-11T05:57:58;13.38;;;5.15;;
74530;SDS011;63010;55.668;37.878;2022-12-11T06:00:24;13.00;;;5.03;;
74530;SDS011;63010;55.668;37.878;2022-12-11T06:02:49;10.52;;;4.95;;
74530;SDS011;63010;55.668;37.878;2022-12-11T06:05:15;12.13;;;5.72;;
74530;SDS011;63010;55.668;37.878;2022-12-11T06:07:41;11.25;;;5.20;;
74530;SDS011;63010;55.668;37.878;2022-12-11T06:10:06;12.80;;;5.07;;
74530;SDS011;63010;55.668;37.878;2022-12-11T06:12:32;11.52;;;5.57;;
74530;SDS011;63010;55.668;37.878;2022-12-11T06:14:58;9.85;;;4.32;;
74530;SDS011;63010;55.668;37.878;2022-12-11T06:17:23;8.10;;;3.78;;
74530;SDS011;63010;55.668;37.878;2022-12-11T06:19:49;8.20;;;3.63;;
74530;SDS011;63010;55.668;37.878;2022-12-11T06:22:15;10.10;;;4.03;;
74530;SDS011;63010;55.668;37.878;2022-12-11T06:24:40;9.88;;;4.55;;
74530;SDS011;63010;55.668;37.878;2022-12-11T06:27:06;10.15;;;4.45;;
74530;SDS011;63010;55.668;37.878;2022-12-11T06:29:31;7.50;;;3.67;;
74530;SDS011;63010;55.668;37.878;2022-12-11T06:31:57;9.45;;;4.05;;
74530;SDS011;63010;55.668;37.878;2022-12-11T06:34:22;16.65;;;8.88;;
74530;SDS011;63010;55.668;37.878;2022-12-11T06:36:48;10.95;;;5.20;;
74530;SDS011;63010;55.668;37.878;2022-12-11T06:39:13;13.63;;;6.15;;
74530;SDS011;63010;55.668;37.878;2022-12-11T06:41:39;11.90;;;5.35;;
74530;SDS011;63010;55.668;37.878;2022-12-11T06:44:04;10.77;;;5.50;;
74530;SDS011;63010;55.668;37.878;2022-12-11T06:46:30;12.43;;;4.78;;
74530;SDS011;63010;55.668;37.878;2022-12-11T06:48:55;12.43;;;5.95;;
74530;SDS011;63010;55.668;37.878;2022-12-11T06:51:21;12.10;;;5.65;;
74530;SDS011;63010;55.668;37.878;2022-12-11T06:53:54;11.85;;;5.85;;
74530;SDS011;63010;55.668;37.878;2022-12-11T06:56:20;11.68;;;5.88;;
74530;SDS011;63010;55.668;37.878;2022-12-11T07:01:17;12.02;;;5.20;;
74530;SDS011;63010;55.668;37.878;2022-12-11T07:03:44;14.13;;;5.35;;
74530;SDS011;63010;55.668;37.878;2022-12-11T07:06:10;12.60;;;5.20;;
74530;SDS011;63010;55.668;37.878;2022-12-11T07:08:35;11.38;;;4.78;;
74530;SDS011;63010;55.668;37.878;2022-12-11T07:11:02;9.02;;;5.18;;
74530;SDS011;63010;55.668;37.878;2022-12-11T07:13:32;12.07;;;5.55;;
74530;SDS011;63010;55.668;37.878;2022-12-11T07:15:58;12.80;;;6.15;;
74530;SDS011;63010;55.668;37.878;2022-12-11T07:18:24;15.90;;;6.30;;
74530;SDS011;63010;55.668;37.878;2022-12-11T07:20:50;17.17;;;6.85;;
74530;SDS011;63010;55.668;37.878;2022-12-11T07:23:16;12.52;;;5.70;;
74530;SDS011;63010;55.668;37.878;2022-12-11T07:25:42;13.43;;;5.95;;
74530;SDS011;63010;55.668;37.878;2022-12-11T07:28:07;14.80;;;6.72;;
74530;SDS011;63010;55.668;37.878;2022-12-11T07:30:33;18.40;;;7.43;;
74530;SDS011;63010;55.668;37.878;2022-12-11T07:32:58;14.32;;;7.00;;
74530;SDS011;63010;55.668;37.878;2022-12-11T07:35:24;12.82;;;6.75;;
74530;SDS011;63010;55.668;37.878;2022-12-11T07:37:50;12.70;;;7.10;;
74530;SDS011;63010;55.668;37.878;2022-12-11T07:40:15;11.40;;;6.03;;
74530;SDS011;63010;55.668;37.878;2022-12-11T07:42:41;12.68;;;6.72;;
74530;SDS011;63010;55.668;37.878;2022-12-11T07:45:06;14.98;;;6.80;;
74530;SDS011;63010;55.668;37.878;2022-12-11T07:47:32;14.60;;;6.72;;
74530;SDS011;63010;55.668;37.878;2022-12-11T07:49:58;19.45;;;7.47;;
74530;SDS011;63010;55.668;37.878;2022-12-11T07:52:23;14.90;;;7.40;;
74530;SDS011;63010;55.668;37.878;2022-12-11T07:54:49;14.43;;;6.78;;
74530;SDS011;63010;55.668;37.878;2022-12-11T07:57:15;17.70;;;7.45;;
74530;SDS011;63010;55.668;37.878;2022-12-11T07:59:40;15.13;;;7.40;;
74530;SDS011;63010;55.668;37.878;2022-12-11T08:02:07;14.75;;;7.65;;
74530;SDS011;63010;55.668;37.878;2022-12-11T08:04:34;16.60;;;7.45;;
74530;SDS011;63010;55.668;37.878;2022-12-11T08:07:00;13.80;;;7.80;;
74530;SDS011;63010;55.668;37.878;2022-12-11T08:09:25;12.57;;;6.82;;
74530;SDS011;63010;55.668;37.878;2022-12-11T08:11:51;11.48;;;5.03;;
74530;SDS011;63010;55.668;37.878;2022-12-11T08:14:17;9.77;;;5.95;;
74530;SDS011;63010;55.668;37.878;2022-12-11T08:16:43;11.23;;;6.63;;
74530;SDS011;63010;55.668;37.878;2022-12-11T08:19:12;12.05;;;5.70;;
74530;SDS011;63010;55.668;37.878;2022-12-11T08:21:38;11.30;;;6.13;;
74530;SDS011;63010;55.668;37.878;2022-12-11T08:24:04;11.43;;;5.95;;
74530;SDS011;63010;55.668;37.878;2022-12-11T08:26:30;10.85;;;6.10;;
74530;SDS011;63010;55.668;37.878;2022-12-11T08:28:57;13.45;;;6.10;;
74530;SDS011;63010;55.668;37.878;2022-12-11T08:31:23;11.70;;;6.43;;
74530;SDS011;63010;55.668;37.878;2022-12-11T08:33:49;12.82;;;6.65;;
74530;SDS011;63010;55.668;37.878;2022-12-11T08:36:16;11.43;;;6.32;;
74530;SDS011;63010;55.668;37.878;2022-12-11T08:38:44;16.10;;;6.97;;
74530;SDS011;63010;55.668;37.878;2022-12-11T08:41:11;14.63;;;7.88;;
74530;SDS011;63010;55.668;37.878;2022-12-11T08:43:37;14.05;;;7.05;;
74530;SDS011;63010;55.668;37.878;2022-12-11T08:46:03;13.48;;;7.72;;
74530;SDS011;63010;55.668;37.878;2022-12-11T08:48:29;11.73;;;6.57;;
74530;SDS011;63010;55.668;37.878;2022-12-11T08:50:57;14.85;;;7.15;;
74530;SDS011;63010;55.668;37.878;2022-12-11T08:53:24;13.27;;;7.53;;
74530;SDS011;63010;55.668;37.878;2022-12-11T08:55:50;11.48;;;6.15;;
74530;SDS011;63010;55.668;37.878;2022-12-11T08:58:15;11.68;;;6.63;;
74530;SDS011;63010;55.668;37.878;2022-12-11T09:00:41;12.35;;;6.55;;
74530;SDS011;63010;55.668;37.878;2022-12-11T09:03:07;11.52;;;7.57;;
74530;SDS011;63010;55.668;37.878;2022-12-11T09:05:33;11.43;;;6.22;;
74530;SDS011;63010;55.668;37.878;2022-12-11T09:07:58;12.68;;;6.95;;
74530;SDS011;63010;55.668;37.878;2022-12-11T09:10:24;13.18;;;6.63;;
74530;SDS011;63010;55.668;37.878;2022-12-11T09:12:49;12.05;;;7.88;;
74530;SDS011;63010;55.668;37.878;2022-12-11T09:15:15;11.15;;;6.75;;
74530;SDS011;63010;55.668;37.878;2022-12-11T09:17:40;12.50;;;6.88;;
74530;SDS011;63010;55.668;37.878;2022-12-11T09:20:06;12.00;;;7.22;;
74530;SDS011;63010;55.668;37.878;2022-12-11T09:22:32;13.80;;;7.65;;
74530;SDS011;63010;55.668;37.878;2022-12-11T09:24:58;17.48;;;7.70;;
74530;SDS011;63010;55.668;37.878;2022-12-11T09:27:24;11.55;;;5.78;;
74530;SDS011;63010;55.668;37.878;2022-12-11T09:29:49;22.20;;;9.73;;
74530;SDS011;63010;55.668;37.878;2022-12-11T09:32:15;15.55;;;7.90;;
74530;SDS011;63010;55.668;37.878;2022-12-11T09:34:41;13.15;;;6.75;;
74530;SDS011;63010;55.668;37.878;2022-12-11T09:37:07;12.75;;;6.90;;
74530;SDS011;63010;55.668;37.878;2022-12-11T09:39:33;12.82;;;7.15;;
74530;SDS011;63010;55.668;37.878;2022-12-11T09:44:54;12.05;;;6.95;;
74530;SDS011;63010;55.668;37.878;2022-12-11T09:47:26;15.05;;;8.32;;
74530;SDS011;63010;55.668;37.878;2022-12-11T09:55:17;12.90;;;7.53;;
74530;SDS011;63010;55.668;37.878;2022-12-11T10:00:41;14.00;;;7.97;;
74530;SDS011;63010;55.668;37.878;2022-12-11T10:06:02;18.23;;;8.85;;
74530;SDS011;63010;55.668;37.878;2022-12-11T10:11:34;14.27;;;8.75;;
74530;SDS011;63010;55.668;37.878;2022-12-11T10:17:01;13.20;;;8.25;;
74530;SDS011;63010;55.668;37.878;2022-12-11T10:19:40;15.15;;;8.77;;
74530;SDS011;63010;55.668;37.878;2022-12-11T10:22:10;14.63;;;7.97;;
74530;SDS011;63010;55.668;37.878;2022-12-11T10:24:44;15.80;;;8.20;;
74530;SDS011;63010;55.668;37.878;2022-12-11T10:27:24;14.32;;;8.27;;
74530;SDS011;63010;55.668;37.878;2022-12-11T10:35:43;12.13;;;7.15;;
74530;SDS011;63010;55.668;37.878;2022-12-11T10:38:14;15.00;;;7.32;;
74530;SDS011;63010;55.668;37.878;2022-12-11T10:40:42;12.43;;;7.30;;
74530;SDS011;63010;55.668;37.878;2022-12-11T10:43:09;10.90;;;6.55;;
74530;SDS011;63010;55.668;37.878;2022-12-11T10:45:35;12.52;;;6.45;;
74530;SDS011;63010;55.668;37.878;2022-12-11T10:48:05;12.15;;;7.25;;
74530;SDS011;63010;55.668;37.878;2022-12-11T10:50:34;13.18;;;7.50;;
74530;SDS011;63010;55.668;37.878;2022-12-11T10:53:00;12.55;;;7.47;;
74530;SDS011;63010;55.668;37.878;2022-12-11T10:55:27;13.65;;;7.30;;
74530;SDS011;63010;55.668;37.878;2022-12-11T10:57:59;15.27;;;8.68;;
74530;SDS011;63010;55.668;37.878;2022-12-11T11:02:54;10.57;;;6.93;;
74530;SDS011;63010;55.668;37.878;2022-12-11T11:08:13;12.43;;;7.57;;
74530;SDS011;63010;55.668;37.878;2022-12-11T11:10:50;15.30;;;6.68;;
74530;SDS011;63010;55.668;37.878;2022-12-11T11:13:19;12.02;;;6.35;;
74530;SDS011;63010;55.668;37.878;2022-12-11T11:15:46;9.82;;;6.57;;
74530;SDS011;63010;55.668;37.878;2022-12-11T11:18:15;11.63;;;6.80;;
74530;SDS011;63010;55.668;37.878;2022-12-11T11:20:50;10.95;;;6.72;;
74530;SDS011;63010;55.668;37.878;2022-12-11T11:23:16;11.70;;;6.60;;
74530;SDS011;63010;55.668;37.878;2022-12-11T11:25:56;12.25;;;6.38;;
74530;SDS011;63010;55.668;37.878;2022-12-11T11:28:30;10.73;;;6.00;;
74530;SDS011;63010;55.668;37.878;2022-12-11T11:36:29;10.88;;;6.80;;
74530;SDS011;63010;55.668;37.878;2022-12-11T11:41:46;11.35;;;7.03;;
74530;SDS011;63010;55.668;37.878;2022-12-11T11:44:42;8.27;;;5.40;;
74530;SDS011;63010;55.668;37.878;2022-12-11T11:47:21;9.20;;;5.97;;
74530;SDS011;63010;55.668;37.878;2022-12-11T11:49:58;8.93;;;5.60;;
74530;SDS011;63010;55.668;37.878;2022-12-11T11:52:33;10.45;;;5.97;;
74530;SDS011;63010;55.668;37.878;2022-12-11T11:55:11;13.05;;;6.93;;
74530;SDS011;63010;55.668;37.878;2022-12-11T11:57:44;10.85;;;5.95;;
74530;SDS011;63010;55.668;37.878;2022-12-11T12:00:19;15.43;;;6.07;;
74530;SDS011;63010;55.668;37.878;2022-12-11T12:02:48;7.53;;;5.07;;
74530;SDS011;63010;55.668;37.878;2022-12-11T12:05:21;9.88;;;5.95;;
74530;SDS011;63010;55.668;37.878;2022-12-11T12:08:05;10.90;;;5.88;;
74530;SDS011;63010;55.668;37.878;2022-12-11T12:14:06;9.40;;;6.03;;
74530;SDS011;63010;55.668;37.878;2022-12-11T12:16:55;9.73;;;5.85;;
74530;SDS011;63010;55.668;37.878;2022-12-11T12:19:36;12.05;;;6.97;;
74530;SDS011;63010;55.668;37.878;2022-12-11T12:25:02;14.15;;;7.65;;
74530;SDS011;63010;55.668;37.878;2022-12-11T12:30:22;13.40;;;7.43;;
74530;SDS011;63010;55.668;37.878;2022-12-11T12:35:43;10.77;;;7.28;;
74530;SDS011;63010;55.668;37.878;2022-12-11T12:38:26;12.07;;;7.85;;
74530;SDS011;63010;55.668;37.878;2022-12-11T12:48:53;8.48;;;5.35;;
74530;SDS011;63010;55.668;37.878;2022-12-11T12:51:22;10.43;;;5.50;;
74530;SDS011;63010;55.668;37.878;2022-12-11T12:53:56;9.05;;;4.70;;
74530;SDS011;63010;55.668;37.878;2022-12-11T12:56:24;7.60;;;4.90;;
74530;SDS011;63010;55.668;37.878;2022-12-11T12:58:53;7.50;;;4.68;;
74530;SDS011;63010;55.668;37.878;2022-12-11T13:01:23;7.13;;;5.13;;
74530;SDS011;63010;55.668;37.878;2022-12-11T13:04:04;6.00;;;4.65;;
74530;SDS011;63010;55.668;37.878;2022-12-11T13:09:11;6.75;;;4.28;;
74530;SDS011;63010;55.668;37.878;2022-12-11T13:11:41;6.78;;;4.65;;
74530;SDS011;63010;55.668;37.878;2022-12-11T13:14:20;8.82;;;4.75;;
74530;SDS011;63010;55.668;37.878;2022-12-11T13:16:52;7.20;;;4.25;;
74530;SDS011;63010;55.668;37.878;2022-12-11T13:19:49;6.43;;;3.85;;
74530;SDS011;63010;55.668;37.878;2022-12-11T13:22:22;8.65;;;4.70;;
74530;SDS011;63010;55.668;37.878;2022-12-11T13:32:38;6.45;;;4.22;;
74530;SDS011;63010;55.668;37.878;2022-12-11T13:39:58;8.27;;;4.78;;
74530;SDS011;63010;55.668;37.878;2022-12-11T13:42:58;9.15;;;5.00;;
74530;SDS011;63010;55.668;37.878;2022-12-11T13:45:28;6.15;;;4.40;;
74530;SDS011;63010;55.668;37.878;2022-12-11T13:48:01;8.85;;;5.20;;
74530;SDS011;63010;55.668;37.878;2022-12-11T13:50:32;10.05;;;5.18;;
74530;SDS011;63010;55.668;37.878;2022-12-11T13:52:59;7.28;;;4.07;;
74530;SDS011;63010;55.668;37.878;2022-12-11T13:55:31;8.07;;;5.35;;
74530;SDS011;63010;55.668;37.878;2022-12-11T13:57:58;6.95;;;4.75;;
74530;SDS011;63010;55.668;37.878;2022-12-11T14:00:25;7.18;;;4.35;;
74530;SDS011;63010;55.668;37.878;2022-12-11T14:02:57;7.75;;;4.63;;
74530;SDS011;63010;55.668;37.878;2022-12-11T14:05:26;7.13;;;4.38;;
74530;SDS011;63010;55.668;37.878;2022-12-11T14:07:54;9.15;;;5.20;;
74530;SDS011;63010;55.668;37.878;2022-12-11T14:10:22;8.52;;;4.53;;
74530;SDS011;63010;55.668;37.878;2022-12-11T14:15:25;8.95;;;4.57;;
74530;SDS011;63010;55.668;37.878;2022-12-11T14:17:52;8.48;;;5.20;;
74530;SDS011;63010;55.668;37.878;2022-12-11T14:20:21;8.90;;;4.95;;
74530;SDS011;63010;55.668;37.878;2022-12-11T14:22:49;7.90;;;4.72;;
74530;SDS011;63010;55.668;37.878;2022-12-11T14:25:33;6.10;;;4.28;;
74530;SDS011;63010;55.668;37.878;2022-12-11T14:27:59;9.73;;;4.82;;
74530;SDS011;63010;55.668;37.878;2022-12-11T14:30:29;9.00;;;4.82;;
74530;SDS011;63010;55.668;37.878;2022-12-11T14:32:58;8.52;;;4.90;;
74530;SDS011;63010;55.668;37.878;2022-12-11T14:35:28;9.23;;;4.75;;
74530;SDS011;63010;55.668;37.878;2022-12-11T14:37:57;8.68;;;5.25;;
74530;SDS011;63010;55.668;37.878;2022-12-11T14:40:27;9.48;;;5.65;;
74530;SDS011;63010;55.668;37.878;2022-12-11T14:43:00;10.38;;;5.57;;
74530;SDS011;63010;55.668;37.878;2022-12-11T14:48:01;8.93;;;4.75;;
74530;SDS011;63010;55.668;37.878;2022-12-11T14:50:35;9.18;;;5.38;;
74530;SDS011;63010;55.668;37.878;2022-12-11T14:53:07;10.40;;;5.97;;
74530;SDS011;63010;55.668;37.878;2022-12-11T14:55:43;7.93;;;4.43;;
74530;SDS011;63010;55.668;37.878;2022-12-11T14:58:20;7.40;;;5.13;;
74530;SDS011;63010;55.668;37.878;2022-12-11T15:00:56;7.05;;;5.22;;
74530;SDS011;63010;55.668;37.878;2022-12-11T15:03:29;7.90;;;5.07;;
74530;SDS011;63010;55.668;37.878;2022-12-11T15:06:02;6.78;;;4.70;;
74530;SDS011;63010;55.668;37.878;2022-12-11T15:08:46;7.22;;;4.53;;
74530;SDS011;63010;55.668;37.878;2022-12-11T15:11:13;7.57;;;4.65;;
74530;SDS011;63010;55.668;37.878;2022-12-11T15:13:51;7.03;;;3.88;;
74530;SDS011;63010;55.668;37.878;2022-12-11T15:16:22;8.07;;;5.07;;
74530;SDS011;63010;55.668;37.878;2022-12-11T15:18:50;7.45;;;4.68;;
74530;SDS011;63010;55.668;37.878;2022-12-11T15:21:17;7.18;;;4.63;;
74530;SDS011;63010;55.668;37.878;2022-12-11T15:23:52;5.32;;;3.55;;
74530;SDS011;63010;55.668;37.878;2022-12-11T15:26:31;7.00;;;4.20;;
74530;SDS011;63010;55.668;37.878;2022-12-11T15:29:03;7.18;;;4.22;;
74530;SDS011;63010;55.668;37.878;2022-12-11T15:31:31;5.20;;;3.47;;
74530;SDS011;63010;55.668;37.878;2022-12-11T15:34:01;8.40;;;5.03;;
74530;SDS011;63010;55.668;37.878;2022-12-11T15:36:31;7.97;;;4.28;;
74530;SDS011;63010;55.668;37.878;2022-12-11T15:38:57;7.15;;;5.00;;
74530;SDS011;63010;55.668;37.878;2022-12-11T15:41:23;5.35;;;3.50;;
74530;SDS011;63010;55.668;37.878;2022-12-11T15:43:55;10.18;;;4.50;;
74530;SDS011;63010;55.668;37.878;2022-12-11T15:46:22;6.35;;;4.45;;
74530;SDS011;63010;55.668;37.878;2022-12-11T15:48:48;7.30;;;4.15;;
74530;SDS011;63010;55.668;37.878;2022-12-11T15:51:14;9.50;;;5.00;;
74530;SDS011;63010;55.668;37.878;2022-12-11T15:53:41;8.10;;;4.88;;
74530;SDS011;63010;55.668;37.878;2022-12-11T15:56:13;10.60;;;5.05;;
74530;SDS011;63010;55.668;37.878;2022-12-11T15:58:40;10.32;;;5.65;;
74530;SDS011;63010;55.668;37.878;2022-12-11T16:01:08;7.80;;;4.47;;
74530;SDS011;63010;55.668;37.878;2022-12-11T16:03:34;6.75;;;4.32;;
74530;SDS011;63010;55.668;37.878;2022-12-11T16:05:59;7.68;;;3.72;;
74530;SDS011;63010;55.668;37.878;2022-12-11T16:08:25;10.20;;;4.80;;
74530;SDS011;63010;55.668;37.878;2022-12-11T16:10:52;6.97;;;4.22;;
74530;SDS011;63010;55.668;37.878;2022-12-11T16:13:18;10.68;;;5.80;;
74530;SDS011;63010;55.668;37.878;2022-12-11T16:15:45;6.47;;;3.75;;
74530;SDS011;63010;55.668;37.878;2022-12-11T16:18:13;5.50;;;3.42;;
74530;SDS011;63010;55.668;37.878;2022-12-11T16:20:43;4.28;;;3.35;;
74530;SDS011;63010;55.668;37.878;2022-12-11T16:23:10;5.72;;;3.33;;
74530;SDS011;63010;55.668;37.878;2022-12-11T16:25:37;4.38;;;2.97;;
74530;SDS011;63010;55.668;37.878;2022-12-11T16:28:05;6.30;;;3.35;;
74530;SDS011;63010;55.668;37.878;2022-12-11T16:32:58;7.10;;;3.58;;
74530;SDS011;63010;55.668;37.878;2022-12-11T16:35:24;6.70;;;3.58;;
74530;SDS011;63010;55.668;37.878;2022-12-11T16:37:52;4.80;;;3.35;;